PWSweather.com
Personal Weather Stations
Station Observations
ANTHEMNP
Anthem North Parkside, Anthem, AZ 85086

Anthem North ParksideAnthem, AZ 85086

Lat: 33.876464, Lon: -112.13861199999997

Elevation: 1930

Station Type: Davis Vantage Vue with Pro 2 console

http://www.azjerry.com/ANPW/wxindex.php

High Low Average
Temperature 92.1°F33.4°C 65.5°F18.6°C 77.7°F25.4°C
Dew Point 36.0°F2.2°C 18.0°F-7.8°C 29.9°F-1.2°C
Winds 9.4 mph 15.1 kmh Calm Calm 3.0 mph SE4.8 kmh SE
Wind Gusts 16.0 mph25.7 kmh -- 7.0 mph11.3 kmh
Humidity 30% 7% 19%
Pressure 30.09 in1019.0 mb 29.96 in1014.6 mb -
Precipitation 0.00 in0.0 mm - -
Hour Temp Dew Point Humidity Winds Wind Gusts Pressure Precip Precip Rate Daily Precip Total
12:00 AM 71.1°F21.7°C 35.0°F1.7°C 27% 2.6 mph NNE4.2 kmh NNE 7.0 mph11.3 kmh 29.99 in1015.6 mb 0.00 in0.0 mm 0.00 in0.0 mm 0.00 in0.0 mm
12:10 AM 70.7°F21.5°C 36.0°F2.2°C 28% 1.6 mph N2.6 kmh N 5.0 mph8.0 kmh 29.99 in1015.6 mb 0.00 in0.0 mm 0.00 in0.0 mm 0.00 in0.0 mm
12:20 AM 70.3°F21.3°C 36.0°F2.2°C 28% 1.1 mph NNE1.8 kmh NNE 6.0 mph9.7 kmh 29.98 in1015.2 mb 0.00 in0.0 mm 0.00 in0.0 mm 0.00 in0.0 mm
12:30 AM 69.8°F21.0°C 36.0°F2.2°C 29% 3.0 mph N4.8 kmh N 7.0 mph11.3 kmh 29.98 in1015.2 mb 0.00 in0.0 mm 0.00 in0.0 mm 0.00 in0.0 mm
12:40 AM 69.1°F20.6°C 36.0°F2.2°C 30% 2.0 mph N3.2 kmh N 6.0 mph9.7 kmh 29.98 in1015.2 mb 0.00 in0.0 mm 0.00 in0.0 mm 0.00 in0.0 mm
12:50 AM 68.8°F20.4°C 36.0°F2.2°C 30% 3.3 mph N5.3 kmh N 7.0 mph11.3 kmh 29.98 in1015.2 mb 0.00 in0.0 mm 0.00 in0.0 mm 0.00 in0.0 mm
01:00 AM 69.1°F20.6°C 35.0°F1.7°C 29% 4.5 mph NNE7.2 kmh NNE 9.0 mph14.5 kmh 29.99 in1015.6 mb 0.00 in0.0 mm 0.00 in0.0 mm 0.00 in0.0 mm
01:10 AM 68.8°F20.4°C 35.0°F1.7°C 29% 5.2 mph NE8.4 kmh NE 12.0 mph19.3 kmh 29.99 in1015.6 mb 0.00 in0.0 mm 0.00 in0.0 mm 0.00 in0.0 mm
01:20 AM 68.3°F20.2°C 36.0°F2.2°C 30% 5.5 mph N8.9 kmh N 12.0 mph19.3 kmh 29.99 in1015.6 mb 0.00 in0.0 mm 0.00 in0.0 mm 0.00 in0.0 mm
01:30 AM 68.1°F20.1°C 35.0°F1.7°C 29% 5.3 mph N8.5 kmh N 10.0 mph16.1 kmh 29.99 in1015.6 mb 0.00 in0.0 mm 0.00 in0.0 mm 0.00 in0.0 mm
01:40 AM 68.2°F20.1°C 35.0°F1.7°C 29% 5.3 mph NNE8.5 kmh NNE 11.0 mph17.7 kmh 29.99 in1015.6 mb 0.00 in0.0 mm 0.00 in0.0 mm 0.00 in0.0 mm
01:50 AM 68.0°F20.0°C 34.0°F1.1°C 29% 3.4 mph NE5.5 kmh NE 7.0 mph11.3 kmh 30.00 in1015.9 mb 0.00 in0.0 mm 0.00 in0.0 mm 0.00 in0.0 mm
02:00 AM 67.8°F19.9°C 34.0°F1.1°C 29% 3.6 mph ENE5.8 kmh ENE 11.0 mph17.7 kmh 30.00 in1015.9 mb 0.00 in0.0 mm 0.00 in0.0 mm 0.00 in0.0 mm
02:10 AM 67.6°F19.8°C 34.0°F1.1°C 29% 5.0 mph N8.0 kmh N 10.0 mph16.1 kmh 30.00 in1015.9 mb 0.00 in0.0 mm 0.00 in0.0 mm 0.00 in0.0 mm
02:20 AM 67.2°F19.6°C 34.0°F1.1°C 29% 4.8 mph NNE7.7 kmh NNE 10.0 mph16.1 kmh 30.00 in1015.9 mb 0.00 in0.0 mm 0.00 in0.0 mm 0.00 in0.0 mm
02:30 AM 67.3°F19.6°C 33.0°F0.6°C 28% 5.4 mph N8.7 kmh N 13.0 mph20.9 kmh 30.00 in1015.9 mb 0.00 in0.0 mm 0.00 in0.0 mm 0.00 in0.0 mm
02:40 AM 67.0°F19.4°C 33.0°F0.6°C 28% 4.3 mph NE6.9 kmh NE 11.0 mph17.7 kmh 30.00 in1015.9 mb 0.00 in0.0 mm 0.00 in0.0 mm 0.00 in0.0 mm
02:50 AM 67.3°F19.6°C 33.0°F0.6°C 28% 6.6 mph NE10.6 kmh NE 15.0 mph24.1 kmh 30.00 in1015.9 mb 0.00 in0.0 mm 0.00 in0.0 mm 0.00 in0.0 mm
03:00 AM 67.5°F19.7°C 33.0°F0.6°C 28% 7.5 mph NE12.1 kmh NE 15.0 mph24.1 kmh 30.00 in1015.9 mb 0.00 in0.0 mm 0.00 in0.0 mm 0.00 in0.0 mm
03:10 AM 67.6°F19.8°C 33.0°F0.6°C 28% 7.9 mph NNE12.7 kmh NNE 14.0 mph22.5 kmh 30.00 in1015.9 mb 0.00 in0.0 mm 0.00 in0.0 mm 0.00 in0.0 mm
03:20 AM 67.7°F19.8°C 33.0°F0.6°C 28% 7.5 mph N12.1 kmh N 14.0 mph22.5 kmh 30.00 in1015.9 mb 0.00 in0.0 mm 0.00 in0.0 mm 0.00 in0.0 mm
03:30 AM 67.5°F19.7°C 33.0°F0.6°C 28% 7.5 mph NNE12.1 kmh NNE 15.0 mph24.1 kmh 30.00 in1015.9 mb 0.00 in0.0 mm 0.00 in0.0 mm 0.00 in0.0 mm
03:40 AM 67.3°F19.6°C 33.0°F0.6°C 28% 7.0 mph N11.3 kmh N 13.0 mph20.9 kmh 30.00 in1015.9 mb 0.00 in0.0 mm 0.00 in0.0 mm 0.00 in0.0 mm
03:50 AM 67.2°F19.6°C 33.0°F0.6°C 28% 7.3 mph N11.7 kmh N 14.0 mph22.5 kmh 30.00 in1015.9 mb 0.00 in0.0 mm 0.00 in0.0 mm 0.00 in0.0 mm
04:00 AM 67.3°F19.6°C 32.0°F0.0°C 27% 8.8 mph N14.2 kmh N 15.0 mph24.1 kmh 30.00 in1015.9 mb 0.00 in0.0 mm 0.00 in0.0 mm 0.00 in0.0 mm
04:10 AM 67.3°F19.6°C 32.0°F0.0°C 27% 7.5 mph NNW12.1 kmh NNW 14.0 mph22.5 kmh 30.00 in1015.9 mb 0.00 in0.0 mm 0.00 in0.0 mm 0.00 in0.0 mm
04:20 AM 67.0°F19.4°C 33.0°F0.6°C 28% 8.3 mph N13.4 kmh N 15.0 mph24.1 kmh 30.01 in1016.3 mb 0.00 in0.0 mm 0.00 in0.0 mm 0.00 in0.0 mm
04:30 AM 66.4°F19.1°C 32.0°F0.0°C 28% 6.0 mph NE9.7 kmh NE 11.0 mph17.7 kmh 30.00 in1015.9 mb 0.00 in0.0 mm 0.00 in0.0 mm 0.00 in0.0 mm
04:40 AM 66.1°F18.9°C 32.0°F0.0°C 28% 6.2 mph ENE10.0 kmh ENE 12.0 mph19.3 kmh 30.01 in1016.3 mb 0.00 in0.0 mm 0.00 in0.0 mm 0.00 in0.0 mm
04:50 AM 66.0°F18.9°C 32.0°F0.0°C 28% 7.0 mph N11.3 kmh N 13.0 mph20.9 kmh 30.01 in1016.3 mb 0.00 in0.0 mm 0.00 in0.0 mm 0.00 in0.0 mm
05:00 AM 66.1°F18.9°C 32.0°F0.0°C 28% 7.5 mph NE12.1 kmh NE 13.0 mph20.9 kmh 30.01 in1016.3 mb 0.00 in0.0 mm 0.00 in0.0 mm 0.00 in0.0 mm
05:10 AM 66.4°F19.1°C 32.0°F0.0°C 28% 7.9 mph NNE12.7 kmh NNE 16.0 mph25.7 kmh 30.01 in1016.3 mb 0.00 in0.0 mm 0.00 in0.0 mm 0.00 in0.0 mm
05:20 AM 66.5°F19.2°C 31.0°F-0.6°C 27% 7.6 mph N12.2 kmh N 13.0 mph20.9 kmh 30.02 in1016.6 mb 0.00 in0.0 mm 0.00 in0.0 mm 0.00 in0.0 mm
05:30 AM 66.4°F19.1°C 31.0°F-0.6°C 27% 9.4 mph N15.1 kmh N 16.0 mph25.7 kmh 30.02 in1016.6 mb 0.00 in0.0 mm 0.00 in0.0 mm 0.00 in0.0 mm
05:40 AM 66.0°F18.9°C 31.0°F-0.6°C 27% 8.9 mph NNE14.3 kmh NNE 15.0 mph24.1 kmh 30.02 in1016.6 mb 0.00 in0.0 mm 0.00 in0.0 mm 0.00 in0.0 mm
05:50 AM 65.7°F18.7°C 31.0°F-0.6°C 27% 6.1 mph N9.8 kmh N 14.0 mph22.5 kmh 30.02 in1016.6 mb 0.00 in0.0 mm 0.00 in0.0 mm 0.00 in0.0 mm
06:00 AM 65.6°F18.7°C 31.0°F-0.6°C 27% 5.2 mph N8.4 kmh N 10.0 mph16.1 kmh 30.02 in1016.6 mb 0.00 in0.0 mm 0.00 in0.0 mm 0.00 in0.0 mm
06:10 AM 65.7°F18.7°C 31.0°F-0.6°C 27% 4.8 mph NNW7.7 kmh NNW 9.0 mph14.5 kmh 30.02 in1016.6 mb 0.00 in0.0 mm 0.00 in0.0 mm 0.00 in0.0 mm
06:20 AM 65.5°F18.6°C 30.0°F-1.1°C 27% 6.7 mph N10.8 kmh N 12.0 mph19.3 kmh 30.03 in1016.9 mb 0.00 in0.0 mm 0.00 in0.0 mm 0.00 in0.0 mm
06:30 AM 65.6°F18.7°C 31.0°F-0.6°C 27% 6.3 mph N10.1 kmh N 13.0 mph20.9 kmh 30.03 in1016.9 mb 0.00 in0.0 mm 0.00 in0.0 mm 0.00 in0.0 mm
06:40 AM 66.1°F18.9°C 30.0°F-1.1°C 26% 6.8 mph N10.9 kmh N 12.0 mph19.3 kmh 30.03 in1016.9 mb 0.00 in0.0 mm 0.00 in0.0 mm 0.00 in0.0 mm
06:50 AM 66.7°F19.3°C 31.0°F-0.6°C 26% 6.3 mph NNE10.1 kmh NNE 13.0 mph20.9 kmh 30.03 in1016.9 mb 0.00 in0.0 mm 0.00 in0.0 mm 0.00 in0.0 mm
07:00 AM 67.1°F19.5°C 30.0°F-1.1°C 25% 6.1 mph NNE9.8 kmh NNE 12.0 mph19.3 kmh 30.04 in1017.3 mb 0.00 in0.0 mm 0.00 in0.0 mm 0.00 in0.0 mm
07:10 AM 67.3°F19.6°C 30.0°F-1.1°C 25% 6.8 mph NE10.9 kmh NE 13.0 mph20.9 kmh 30.04 in1017.3 mb 0.00 in0.0 mm 0.00 in0.0 mm 0.00 in0.0 mm
07:20 AM 67.4°F19.7°C 30.0°F-1.1°C 25% 7.7 mph NE12.4 kmh NE 13.0 mph20.9 kmh 30.05 in1017.6 mb 0.00 in0.0 mm 0.00 in0.0 mm 0.00 in0.0 mm
07:30 AM 68.0°F20.0°C 30.0°F-1.1°C 24% 7.8 mph N12.6 kmh N 16.0 mph25.7 kmh 30.05 in1017.6 mb 0.00 in0.0 mm 0.00 in0.0 mm 0.00 in0.0 mm
07:40 AM 68.2°F20.1°C 30.0°F-1.1°C 24% 7.7 mph NE12.4 kmh NE 15.0 mph24.1 kmh 30.05 in1017.6 mb 0.00 in0.0 mm 0.00 in0.0 mm 0.00 in0.0 mm
07:50 AM 68.7°F20.4°C 30.0°F-1.1°C 24% 8.6 mph N13.8 kmh N 15.0 mph24.1 kmh 30.06 in1017.9 mb 0.00 in0.0 mm 0.00 in0.0 mm 0.00 in0.0 mm
08:00 AM 69.6°F20.9°C 30.0°F-1.1°C 23% 7.8 mph N12.6 kmh N 15.0 mph24.1 kmh 30.06 in1017.9 mb 0.00 in0.0 mm 0.00 in0.0 mm 0.00 in0.0 mm
08:10 AM 70.4°F21.3°C 32.0°F0.0°C 24% 6.6 mph N10.6 kmh N 14.0 mph22.5 kmh 30.06 in1017.9 mb 0.00 in0.0 mm 0.00 in0.0 mm 0.00 in0.0 mm
08:20 AM 71.4°F21.9°C 32.0°F0.0°C 23% 7.0 mph NE11.3 kmh NE 15.0 mph24.1 kmh 30.07 in1018.3 mb 0.00 in0.0 mm 0.00 in0.0 mm 0.00 in0.0 mm
08:30 AM 73.2°F22.9°C 31.0°F-0.6°C 21% 5.5 mph NW8.9 kmh NW 11.0 mph17.7 kmh 30.07 in1018.3 mb 0.00 in0.0 mm 0.00 in0.0 mm 0.00 in0.0 mm
08:40 AM 75.0°F23.9°C 30.0°F-1.1°C 19% 6.6 mph NNE10.6 kmh NNE 13.0 mph20.9 kmh 30.07 in1018.3 mb 0.00 in0.0 mm 0.00 in0.0 mm 0.00 in0.0 mm
08:50 AM 75.8°F24.3°C 29.0°F-1.7°C 18% 7.2 mph N11.6 kmh N 13.0 mph20.9 kmh 30.07 in1018.3 mb 0.00 in0.0 mm 0.00 in0.0 mm 0.00 in0.0 mm
09:00 AM 76.7°F24.8°C 30.0°F-1.1°C 18% 6.2 mph NNE10.0 kmh NNE 13.0 mph20.9 kmh 30.07 in1018.3 mb 0.00 in0.0 mm 0.00 in0.0 mm 0.00 in0.0 mm
09:10 AM 77.4°F25.2°C 29.0°F-1.7°C 17% 4.6 mph N7.4 kmh N 10.0 mph16.1 kmh 30.08 in1018.6 mb 0.00 in0.0 mm 0.00 in0.0 mm 0.00 in0.0 mm
09:20 AM 78.1°F25.6°C 30.0°F-1.1°C 17% 3.4 mph N5.5 kmh N 9.0 mph14.5 kmh 30.08 in1018.6 mb 0.00 in0.0 mm 0.00 in0.0 mm 0.00 in0.0 mm
09:30 AM 78.6°F25.9°C 29.0°F-1.7°C 16% 4.8 mph NE7.7 kmh NE 11.0 mph17.7 kmh 30.08 in1018.6 mb 0.00 in0.0 mm 0.00 in0.0 mm 0.00 in0.0 mm
09:40 AM 79.4°F26.3°C 29.0°F-1.7°C 16% 5.9 mph NE9.5 kmh NE 11.0 mph17.7 kmh 30.08 in1018.6 mb 0.00 in0.0 mm 0.00 in0.0 mm 0.00 in0.0 mm
09:50 AM 80.2°F26.8°C 28.0°F-2.2°C 15% 5.6 mph N9.0 kmh N 11.0 mph17.7 kmh 30.09 in1019.0 mb 0.00 in0.0 mm 0.00 in0.0 mm 0.00 in0.0 mm
10:00 AM 80.9°F27.2°C 27.0°F-2.8°C 14% 5.9 mph NE9.5 kmh NE 12.0 mph19.3 kmh 30.08 in1018.6 mb 0.00 in0.0 mm 0.00 in0.0 mm 0.00 in0.0 mm
10:10 AM 81.7°F27.6°C 30.0°F-1.1°C 15% 6.0 mph NW9.7 kmh NW 11.0 mph17.7 kmh 30.08 in1018.6 mb 0.00 in0.0 mm 0.00 in0.0 mm 0.00 in0.0 mm
10:20 AM 82.5°F28.1°C 29.0°F-1.7°C 14% 5.6 mph N9.0 kmh N 10.0 mph16.1 kmh 30.08 in1018.6 mb 0.00 in0.0 mm 0.00 in0.0 mm 0.00 in0.0 mm
10:30 AM 83.8°F28.8°C 30.0°F-1.1°C 14% 4.3 mph NW6.9 kmh NW 10.0 mph16.1 kmh 30.08 in1018.6 mb 0.00 in0.0 mm 0.00 in0.0 mm 0.00 in0.0 mm
10:40 AM 84.6°F29.2°C 27.0°F-2.8°C 12% 5.1 mph N8.2 kmh N 10.0 mph16.1 kmh 30.08 in1018.6 mb 0.00 in0.0 mm 0.00 in0.0 mm 0.00 in0.0 mm
10:50 AM 85.5°F29.7°C 27.0°F-2.8°C 12% 5.6 mph NNW9.0 kmh NNW 11.0 mph17.7 kmh 30.07 in1018.3 mb 0.00 in0.0 mm 0.00 in0.0 mm 0.00 in0.0 mm
11:00 AM 86.0°F30.0°C 28.0°F-2.2°C 12% 5.0 mph N8.0 kmh N 8.0 mph12.9 kmh 30.07 in1018.3 mb 0.00 in0.0 mm 0.00 in0.0 mm 0.00 in0.0 mm
11:10 AM 86.4°F30.2°C 24.0°F-4.4°C 10% 4.3 mph N6.9 kmh N 8.0 mph12.9 kmh 30.07 in1018.3 mb 0.00 in0.0 mm 0.00 in0.0 mm 0.00 in0.0 mm
11:20 AM 86.8°F30.4°C 24.0°F-4.4°C 10% 3.4 mph NNE5.5 kmh NNE 9.0 mph14.5 kmh 30.07 in1018.3 mb 0.00 in0.0 mm 0.00 in0.0 mm 0.00 in0.0 mm
11:30 AM 87.2°F30.7°C 22.0°F-5.6°C 9% 2.3 mph NNE3.7 kmh NNE 6.0 mph9.7 kmh 30.06 in1017.9 mb 0.00 in0.0 mm 0.00 in0.0 mm 0.00 in0.0 mm
11:40 AM 87.0°F30.6°C 24.0°F-4.4°C 10% 2.4 mph NNE3.9 kmh NNE 6.0 mph9.7 kmh 30.06 in1017.9 mb 0.00 in0.0 mm 0.00 in0.0 mm 0.00 in0.0 mm
11:50 AM 88.4°F31.3°C 25.0°F-3.9°C 10% 0.9 mph NW1.4 kmh NW 2.0 mph3.2 kmh 30.06 in1017.9 mb 0.00 in0.0 mm 0.00 in0.0 mm 0.00 in0.0 mm
12:00 PM 89.0°F31.7°C 26.0°F-3.3°C 10% 0.7 mph NW1.1 kmh NW 3.0 mph4.8 kmh 30.06 in1017.9 mb 0.00 in0.0 mm 0.00 in0.0 mm 0.00 in0.0 mm
12:10 PM 89.4°F31.9°C 28.0°F-2.2°C 11% 1.0 mph NNW1.6 kmh NNW 3.0 mph4.8 kmh 30.05 in1017.6 mb 0.00 in0.0 mm 0.00 in0.0 mm 0.00 in0.0 mm
12:20 PM 89.8°F32.1°C 26.0°F-3.3°C 10% 1.0 mph NW1.6 kmh NW 3.0 mph4.8 kmh 30.05 in1017.6 mb 0.00 in0.0 mm 0.00 in0.0 mm 0.00 in0.0 mm
12:30 PM 90.0°F32.2°C 26.0°F-3.3°C 10% 0.9 mph SW1.4 kmh SW 4.0 mph6.4 kmh 30.04 in1017.3 mb 0.00 in0.0 mm 0.00 in0.0 mm 0.00 in0.0 mm
12:40 PM 89.8°F32.1°C 21.0°F-6.1°C 8% 0.9 mph N1.4 kmh N 4.0 mph6.4 kmh 30.04 in1017.3 mb 0.00 in0.0 mm 0.00 in0.0 mm 0.00 in0.0 mm
12:50 PM 89.7°F32.1°C 26.0°F-3.3°C 10% 1.0 mph NE1.6 kmh NE 3.0 mph4.8 kmh 30.03 in1016.9 mb 0.00 in0.0 mm 0.00 in0.0 mm 0.00 in0.0 mm
01:00 PM 89.4°F31.9°C 23.0°F-5.0°C 9% 1.5 mph NNW2.4 kmh NNW 4.0 mph6.4 kmh 30.03 in1016.9 mb 0.00 in0.0 mm 0.00 in0.0 mm 0.00 in0.0 mm
01:10 PM 89.5°F31.9°C 28.0°F-2.2°C 11% 0.8 mph NE1.3 kmh NE 4.0 mph6.4 kmh 30.02 in1016.6 mb 0.00 in0.0 mm 0.00 in0.0 mm 0.00 in0.0 mm
01:20 PM 90.1°F32.3°C 27.0°F-2.8°C 10% 0.7 mph NNE1.1 kmh NNE 2.0 mph3.2 kmh 30.01 in1016.3 mb 0.00 in0.0 mm 0.00 in0.0 mm 0.00 in0.0 mm
01:30 PM 90.3°F32.4°C 27.0°F-2.8°C 10% 0.8 mph SW1.3 kmh SW 4.0 mph6.4 kmh 30.01 in1016.3 mb 0.00 in0.0 mm 0.00 in0.0 mm 0.00 in0.0 mm
01:40 PM 90.4°F32.4°C 21.0°F-6.1°C 8% 1.7 mph W2.7 kmh W 4.0 mph6.4 kmh 30.01 in1016.3 mb 0.00 in0.0 mm 0.00 in0.0 mm 0.00 in0.0 mm
01:50 PM 90.8°F32.7°C 24.0°F-4.4°C 9% 1.0 mph N1.6 kmh N 4.0 mph6.4 kmh 30.00 in1015.9 mb 0.00 in0.0 mm 0.00 in0.0 mm 0.00 in0.0 mm
02:00 PM 90.5°F32.5°C 18.0°F-7.8°C 7% 1.1 mph SE1.8 kmh SE 4.0 mph6.4 kmh 30.00 in1015.9 mb 0.00 in0.0 mm 0.00 in0.0 mm 0.00 in0.0 mm
02:10 PM 91.9°F33.3°C 25.0°F-3.9°C 9% 0.6 mph W1.0 kmh W 3.0 mph4.8 kmh 30.00 in1015.9 mb 0.00 in0.0 mm 0.00 in0.0 mm 0.00 in0.0 mm
02:20 PM 92.1°F33.4°C 30.0°F-1.1°C 11% 1.4 mph SE2.3 kmh SE 5.0 mph8.0 kmh 30.00 in1015.9 mb 0.00 in0.0 mm 0.00 in0.0 mm 0.00 in0.0 mm
02:30 PM 91.7°F33.2°C 28.0°F-2.2°C 10% 3.4 mph SSE5.5 kmh SSE 10.0 mph16.1 kmh 30.00 in1015.9 mb 0.00 in0.0 mm 0.00 in0.0 mm 0.00 in0.0 mm
02:40 PM 91.6°F33.1°C 25.0°F-3.9°C 9% 3.2 mph SW5.1 kmh SW 8.0 mph12.9 kmh 30.00 in1015.9 mb 0.00 in0.0 mm 0.00 in0.0 mm 0.00 in0.0 mm
02:50 PM 91.6°F33.1°C 25.0°F-3.9°C 9% 2.4 mph SSE3.9 kmh SSE 6.0 mph9.7 kmh 29.99 in1015.6 mb 0.00 in0.0 mm 0.00 in0.0 mm 0.00 in0.0 mm
03:00 PM 91.3°F32.9°C 27.0°F-2.8°C 10% 3.0 mph SW4.8 kmh SW 7.0 mph11.3 kmh 29.99 in1015.6 mb 0.00 in0.0 mm 0.00 in0.0 mm 0.00 in0.0 mm
03:10 PM 91.9°F33.3°C 25.0°F-3.9°C 9% 1.1 mph S1.8 kmh S 4.0 mph6.4 kmh 29.99 in1015.6 mb 0.00 in0.0 mm 0.00 in0.0 mm 0.00 in0.0 mm
03:20 PM 91.4°F33.0°C 28.0°F-2.2°C 10% 1.7 mph WNW2.7 kmh WNW 5.0 mph8.0 kmh 29.98 in1015.2 mb 0.00 in0.0 mm 0.00 in0.0 mm 0.00 in0.0 mm
03:30 PM 91.1°F32.8°C 27.0°F-2.8°C 10% 1.1 mph SW1.8 kmh SW 5.0 mph8.0 kmh 29.98 in1015.2 mb 0.00 in0.0 mm 0.00 in0.0 mm 0.00 in0.0 mm
03:40 PM 91.6°F33.1°C 28.0°F-2.2°C 10% 1.3 mph SW2.1 kmh SW 5.0 mph8.0 kmh 29.98 in1015.2 mb 0.00 in0.0 mm 0.00 in0.0 mm 0.00 in0.0 mm
03:50 PM 91.6°F33.1°C 28.0°F-2.2°C 10% 1.2 mph SW1.9 kmh SW 4.0 mph6.4 kmh 29.98 in1015.2 mb 0.00 in0.0 mm 0.00 in0.0 mm 0.00 in0.0 mm
04:00 PM 91.0°F32.8°C 32.0°F0.0°C 12% 0.9 mph WNW1.4 kmh WNW 3.0 mph4.8 kmh 29.98 in1015.2 mb 0.00 in0.0 mm 0.00 in0.0 mm 0.00 in0.0 mm
04:10 PM 90.9°F32.7°C 29.0°F-1.7°C 11% 1.4 mph S2.3 kmh S 6.0 mph9.7 kmh 29.98 in1015.2 mb 0.00 in0.0 mm 0.00 in0.0 mm 0.00 in0.0 mm
04:20 PM 90.4°F32.4°C 27.0°F-2.8°C 10% 1.1 mph SW1.8 kmh SW 6.0 mph9.7 kmh 29.97 in1014.9 mb 0.00 in0.0 mm 0.00 in0.0 mm 0.00 in0.0 mm
04:30 PM 90.1°F32.3°C 29.0°F-1.7°C 11% 1.4 mph SW2.3 kmh SW 4.0 mph6.4 kmh 29.97 in1014.9 mb 0.00 in0.0 mm 0.00 in0.0 mm 0.00 in0.0 mm
04:40 PM 89.5°F31.9°C 26.0°F-3.3°C 10% 0.3 mph WNW0.5 kmh WNW 1.0 mph1.6 kmh 29.97 in1014.9 mb 0.00 in0.0 mm 0.00 in0.0 mm 0.00 in0.0 mm
04:50 PM 89.2°F31.8°C 28.0°F-2.2°C 11% 0.7 mph SW1.1 kmh SW 5.0 mph8.0 kmh 29.97 in1014.9 mb 0.00 in0.0 mm 0.00 in0.0 mm 0.00 in0.0 mm
05:00 PM 89.0°F31.7°C 26.0°F-3.3°C 10% 1.1 mph SSW1.8 kmh SSW 4.0 mph6.4 kmh 29.96 in1014.6 mb 0.00 in0.0 mm 0.00 in0.0 mm 0.00 in0.0 mm
05:10 PM 88.7°F31.5°C 25.0°F-3.9°C 10% 1.2 mph SSW1.9 kmh SSW 5.0 mph8.0 kmh 29.96 in1014.6 mb 0.00 in0.0 mm 0.00 in0.0 mm 0.00 in0.0 mm
05:20 PM 88.2°F31.2°C 25.0°F-3.9°C 10% 0.3 mph S0.5 kmh S 2.0 mph3.2 kmh 29.96 in1014.6 mb 0.00 in0.0 mm 0.00 in0.0 mm 0.00 in0.0 mm
05:30 PM 87.8°F31.0°C 27.0°F-2.8°C 11% 0.6 mph SSW1.0 kmh SSW 3.0 mph4.8 kmh 29.96 in1014.6 mb 0.00 in0.0 mm 0.00 in0.0 mm 0.00 in0.0 mm
05:40 PM 87.4°F30.8°C 24.0°F-4.4°C 10% 0.5 mph SSW0.8 kmh SSW 3.0 mph4.8 kmh 29.96 in1014.6 mb 0.00 in0.0 mm 0.00 in0.0 mm 0.00 in0.0 mm
05:50 PM 87.1°F30.6°C 29.0°F-1.7°C 12% 1.1 mph SW1.8 kmh SW 3.0 mph4.8 kmh 29.96 in1014.6 mb 0.00 in0.0 mm 0.00 in0.0 mm 0.00 in0.0 mm
06:00 PM 86.6°F30.3°C 26.0°F-3.3°C 11% 1.0 mph SSW1.6 kmh SSW 3.0 mph4.8 kmh 29.96 in1014.6 mb 0.00 in0.0 mm 0.00 in0.0 mm 0.00 in0.0 mm
06:10 PM 85.9°F29.9°C 28.0°F-2.2°C 12% 0.6 mph SW1.0 kmh SW 3.0 mph4.8 kmh 29.96 in1014.6 mb 0.00 in0.0 mm 0.00 in0.0 mm 0.00 in0.0 mm
06:20 PM 85.1°F29.5°C 27.0°F-2.8°C 12% 0.3 mph SSW0.5 kmh SSW 2.0 mph3.2 kmh 29.96 in1014.6 mb 0.00 in0.0 mm 0.00 in0.0 mm 0.00 in0.0 mm
06:30 PM 84.4°F29.1°C 26.0°F-3.3°C 12% 0.2 mph SW0.3 kmh SW 3.0 mph4.8 kmh 29.97 in1014.9 mb 0.00 in0.0 mm 0.00 in0.0 mm 0.00 in0.0 mm
06:40 PM 83.4°F28.6°C 28.0°F-2.2°C 13% 0.1 mph SSW0.2 kmh SSW 1.0 mph1.6 kmh 29.97 in1014.9 mb 0.00 in0.0 mm 0.00 in0.0 mm 0.00 in0.0 mm
06:50 PM 81.8°F27.7°C 28.0°F-2.2°C 14% Calm Calm 1.0 mph1.6 kmh 29.97 in1014.9 mb 0.00 in0.0 mm 0.00 in0.0 mm 0.00 in0.0 mm
07:00 PM 80.5°F26.9°C 30.0°F-1.1°C 16% Calm Calm -- 29.96 in1014.6 mb 0.00 in0.0 mm 0.00 in0.0 mm 0.00 in0.0 mm
07:10 PM 79.5°F26.4°C 31.0°F-0.6°C 17% Calm Calm 1.0 mph1.6 kmh 29.97 in1014.9 mb 0.00 in0.0 mm 0.00 in0.0 mm 0.00 in0.0 mm
07:20 PM 78.6°F25.9°C 32.0°F0.0°C 18% Calm Calm -- 29.98 in1015.2 mb 0.00 in0.0 mm 0.00 in0.0 mm 0.00 in0.0 mm
07:30 PM 78.4°F25.8°C 30.0°F-1.1°C 17% Calm Calm -- 29.98 in1015.2 mb 0.00 in0.0 mm 0.00 in0.0 mm 0.00 in0.0 mm
07:40 PM 77.9°F25.5°C 30.0°F-1.1°C 17% Calm Calm 1.0 mph1.6 kmh 29.98 in1015.2 mb 0.00 in0.0 mm 0.00 in0.0 mm 0.00 in0.0 mm
07:50 PM 77.7°F25.4°C 29.0°F-1.7°C 17% Calm Calm 1.0 mph1.6 kmh 29.98 in1015.2 mb 0.00 in0.0 mm 0.00 in0.0 mm 0.00 in0.0 mm
08:00 PM 77.1°F25.1°C 30.0°F-1.1°C 18% Calm Calm 1.0 mph1.6 kmh 29.98 in1015.2 mb 0.00 in0.0 mm 0.00 in0.0 mm 0.00 in0.0 mm
08:10 PM 76.5°F24.7°C 33.0°F0.6°C 20% Calm Calm 1.0 mph1.6 kmh 29.99 in1015.6 mb 0.00 in0.0 mm 0.00 in0.0 mm 0.00 in0.0 mm
08:20 PM 75.9°F24.4°C 32.0°F0.0°C 20% Calm Calm 1.0 mph1.6 kmh 29.99 in1015.6 mb 0.00 in0.0 mm 0.00 in0.0 mm 0.00 in0.0 mm
08:30 PM 75.4°F24.1°C 33.0°F0.6°C 21% Calm Calm 1.0 mph1.6 kmh 29.99 in1015.6 mb 0.00 in0.0 mm 0.00 in0.0 mm 0.00 in0.0 mm
08:40 PM 75.4°F24.1°C 30.0°F-1.1°C 19% Calm Calm 1.0 mph1.6 kmh 29.99 in1015.6 mb 0.00 in0.0 mm 0.00 in0.0 mm 0.00 in0.0 mm
08:50 PM 75.5°F24.2°C 30.0°F-1.1°C 19% Calm Calm 1.0 mph1.6 kmh 29.99 in1015.6 mb 0.00 in0.0 mm 0.00 in0.0 mm 0.00 in0.0 mm
09:00 PM 75.3°F24.1°C 32.0°F0.0°C 20% Calm Calm 1.0 mph1.6 kmh 30.00 in1015.9 mb 0.00 in0.0 mm 0.00 in0.0 mm 0.00 in0.0 mm
09:10 PM 74.7°F23.7°C 32.0°F0.0°C 21% Calm Calm -- 30.00 in1015.9 mb 0.00 in0.0 mm 0.00 in0.0 mm 0.00 in0.0 mm
09:20 PM 74.1°F23.4°C 33.0°F0.6°C 22% 0.5 mph N0.8 kmh N 2.0 mph3.2 kmh 30.00 in1015.9 mb 0.00 in0.0 mm 0.00 in0.0 mm 0.00 in0.0 mm
09:30 PM 73.7°F23.2°C 34.0°F1.1°C 23% 3.3 mph NNE5.3 kmh NNE 6.0 mph9.7 kmh 30.00 in1015.9 mb 0.00 in0.0 mm 0.00 in0.0 mm 0.00 in0.0 mm
09:40 PM 74.1°F23.4°C 34.0°F1.1°C 23% 3.9 mph N6.3 kmh N 7.0 mph11.3 kmh 30.00 in1015.9 mb 0.00 in0.0 mm 0.00 in0.0 mm 0.00 in0.0 mm
09:50 PM 74.5°F23.6°C 33.0°F0.6°C 22% 3.3 mph NE5.3 kmh NE 6.0 mph9.7 kmh 30.00 in1015.9 mb 0.00 in0.0 mm 0.00 in0.0 mm 0.00 in0.0 mm
10:00 PM 74.9°F23.8°C 32.0°F0.0°C 21% 2.6 mph N4.2 kmh N 5.0 mph8.0 kmh 30.00 in1015.9 mb 0.00 in0.0 mm 0.00 in0.0 mm 0.00 in0.0 mm
10:10 PM 75.1°F23.9°C 33.0°F0.6°C 21% 2.8 mph NNE4.5 kmh NNE 5.0 mph8.0 kmh 30.01 in1016.3 mb 0.00 in0.0 mm 0.00 in0.0 mm 0.00 in0.0 mm
10:20 PM 75.0°F23.9°C 32.0°F0.0°C 21% 1.7 mph N2.7 kmh N 4.0 mph6.4 kmh 30.01 in1016.3 mb 0.00 in0.0 mm 0.00 in0.0 mm 0.00 in0.0 mm
10:30 PM 75.1°F23.9°C 33.0°F0.6°C 21% 2.0 mph N3.2 kmh N 4.0 mph6.4 kmh 30.01 in1016.3 mb 0.00 in0.0 mm 0.00 in0.0 mm 0.00 in0.0 mm
10:40 PM 75.1°F23.9°C 33.0°F0.6°C 21% 1.8 mph NNE2.9 kmh NNE 3.0 mph4.8 kmh 30.01 in1016.3 mb 0.00 in0.0 mm 0.00 in0.0 mm 0.00 in0.0 mm
10:50 PM 75.0°F23.9°C 32.0°F0.0°C 21% 1.0 mph N1.6 kmh N 3.0 mph4.8 kmh 30.00 in1015.9 mb 0.00 in0.0 mm 0.00 in0.0 mm 0.00 in0.0 mm
11:00 PM 74.9°F23.8°C 32.0°F0.0°C 21% 1.1 mph NNE1.8 kmh NNE 3.0 mph4.8 kmh 30.01 in1016.3 mb 0.00 in0.0 mm 0.00 in0.0 mm 0.00 in0.0 mm
11:10 PM 74.3°F23.5°C 32.0°F0.0°C 21% 0.4 mph N0.6 kmh N 2.0 mph3.2 kmh 30.01 in1016.3 mb 0.00 in0.0 mm 0.00 in0.0 mm 0.00 in0.0 mm
11:20 PM 74.4°F23.6°C 32.0°F0.0°C 21% 1.0 mph N1.6 kmh N 3.0 mph4.8 kmh 30.00 in1015.9 mb 0.00 in0.0 mm 0.00 in0.0 mm 0.00 in0.0 mm
11:30 PM 74.4°F23.6°C 32.0°F0.0°C 21% 2.4 mph NNW3.9 kmh NNW 6.0 mph9.7 kmh 30.00 in1015.9 mb 0.00 in0.0 mm 0.00 in0.0 mm 0.00 in0.0 mm
11:40 PM 74.2°F23.4°C 33.0°F0.6°C 22% 3.0 mph NE4.8 kmh NE 6.0 mph9.7 kmh 30.00 in1015.9 mb 0.00 in0.0 mm 0.00 in0.0 mm 0.00 in0.0 mm
11:50 PM 73.2°F22.9°C 33.0°F0.6°C 23% 3.8 mph NE6.1 kmh NE 6.0 mph9.7 kmh 30.00 in1015.9 mb 0.00 in0.0 mm 0.00 in0.0 mm 0.00 in0.0 mm